createdAt,value
2019-04-05T03:55:34.275Z,4.30
2019-04-05T03:58:05.084Z,4.30
2019-04-05T04:00:34.649Z,4.30
2019-04-05T04:03:06.890Z,4.30
2019-04-05T04:05:36.245Z,4.40
2019-04-05T04:08:05.955Z,4.40
2019-04-05T04:10:36.127Z,4.40
2019-04-05T04:13:06.143Z,4.40
2019-04-05T04:15:35.716Z,4.40
2019-04-05T04:18:08.454Z,4.40
2019-04-05T04:20:46.620Z,4.30
2019-04-05T04:23:16.882Z,4.40
2019-04-05T04:25:46.901Z,4.40
2019-04-05T04:28:16.281Z,4.40
2019-04-05T04:30:46.617Z,4.40
2019-04-05T04:33:16.438Z,4.40
2019-04-05T04:35:46.633Z,4.40
2019-04-05T04:38:18.659Z,4.40
2019-04-05T04:40:48.288Z,4.40
2019-04-05T04:43:17.466Z,4.40
2019-04-05T04:45:49.712Z,4.50
2019-04-05T04:48:19.306Z,4.50
2019-04-05T04:50:49.255Z,4.40
2019-04-05T04:53:19.111Z,4.40
2019-04-05T04:55:48.733Z,4.40
2019-04-05T04:58:18.315Z,4.70
2019-04-05T05:00:50.377Z,4.70
2019-04-05T05:03:19.966Z,4.60
2019-04-05T05:05:49.318Z,4.60
2019-04-05T05:08:18.885Z,4.60
2019-04-05T05:10:49.277Z,4.50
2019-04-05T05:13:18.770Z,4.50
2019-04-05T05:15:48.363Z,4.50
2019-04-05T05:18:17.964Z,4.50
2019-04-05T05:20:50.153Z,4.50
2019-04-05T05:23:19.785Z,4.60
2019-04-05T05:25:52.483Z,4.50
2019-04-05T05:28:21.833Z,4.50
2019-04-05T05:30:51.513Z,4.50
2019-04-05T05:33:20.670Z,4.50
2019-04-05T05:35:52.174Z,4.50
2019-04-05T05:38:21.879Z,4.50
2019-04-05T05:40:51.106Z,4.50
2019-04-05T05:43:20.277Z,4.60
2019-04-05T05:45:49.449Z,4.60
2019-04-05T05:48:19.326Z,4.60
2019-04-05T05:50:49.607Z,4.60
2019-04-05T05:53:18.912Z,4.60
2019-04-05T05:55:48.062Z,4.70
2019-04-05T05:58:17.190Z,4.70
2019-04-05T06:00:46.443Z,4.70
2019-04-05T06:03:16.716Z,4.70
2019-04-05T06:05:46.235Z,4.70
2019-04-05T06:08:15.401Z,4.70
2019-04-05T06:10:44.834Z,4.70
2019-04-05T06:13:15.144Z,4.70
2019-04-05T06:15:44.275Z,4.70
2019-04-05T06:18:13.399Z,4.60
2019-04-05T06:20:45.227Z,4.60
2019-04-05T06:23:14.348Z,4.60
2019-04-05T06:25:43.900Z,4.60
2019-04-05T06:28:15.932Z,4.60
2019-04-05T06:30:46.455Z,4.60
2019-04-05T06:33:15.663Z,4.60
2019-04-05T06:35:45.540Z,4.60
2019-04-05T06:38:14.709Z,4.70
2019-04-05T06:40:43.866Z,4.60
2019-04-05T06:43:13.050Z,4.60
2019-04-05T06:45:42.296Z,4.70
2019-04-05T06:48:19.110Z,4.80
2019-04-05T06:50:42.411Z,4.80
2019-04-05T06:53:11.670Z,4.90
2019-04-05T06:55:41.316Z,4.90
2019-04-05T06:58:10.678Z,4.80
2019-04-05T07:00:40.418Z,4.90
2019-04-05T07:03:09.689Z,5.00
2019-04-05T07:05:46.417Z,5.00
2019-04-05T07:08:18.215Z,5.00
2019-04-05T07:10:46.732Z,5.10
2019-04-05T07:13:16.269Z,5.00
2019-04-05T07:15:45.536Z,4.90
2019-04-05T07:18:16.782Z,4.90
2019-04-05T07:20:47.591Z,5.00
2019-04-05T07:23:16.776Z,5.10
2019-04-05T07:25:47.792Z,5.10
2019-04-05T07:28:18.050Z,5.00
2019-04-05T07:30:49.504Z,5.10
2019-04-05T07:33:22.081Z,5.10
2019-04-05T07:35:51.224Z,5.10
2019-04-05T07:38:21.243Z,5.20
2019-04-05T07:40:50.421Z,5.20
2019-04-05T07:43:19.711Z,5.30
2019-04-05T07:45:49.091Z,5.30
2019-04-05T07:48:18.275Z,5.30
2019-04-05T07:50:47.469Z,5.40
2019-04-05T07:53:16.742Z,5.50
2019-04-05T07:55:45.993Z,5.60
2019-04-05T07:58:19.001Z,5.70
2019-04-05T08:00:50.833Z,5.80
2019-04-05T08:03:20.606Z,5.90
2019-04-05T08:05:50.886Z,6.10
2019-04-05T08:08:33.111Z,6.40
2019-04-05T08:11:03.525Z,6.60
2019-04-05T08:13:34.973Z,6.90
2019-04-05T08:16:06.211Z,7.00
2019-04-05T08:18:36.191Z,7.10
2019-04-05T08:21:05.395Z,7.20
2019-04-05T08:23:34.536Z,7.30
2019-04-05T08:26:04.357Z,7.40
2019-04-05T08:28:33.513Z,7.40
2019-04-05T08:31:02.719Z,7.60
2019-04-05T08:33:31.907Z,7.70
2019-04-05T08:36:01.580Z,7.80
2019-04-05T08:38:30.798Z,7.60
2019-04-05T08:41:00.013Z,7.70
2019-04-05T08:43:29.186Z,8.10
2019-04-05T08:45:58.410Z,8.00
2019-04-05T08:48:27.923Z,8.10
2019-04-05T08:50:57.204Z,8.00
2019-04-05T08:53:26.351Z,8.00
2019-04-05T08:55:55.510Z,7.90
2019-04-05T08:58:33.479Z,7.70
2019-04-05T09:00:59.483Z,7.60
2019-04-05T09:03:32.389Z,7.50
2019-04-05T09:06:01.564Z,7.30
2019-04-05T09:08:30.715Z,7.20
2019-04-05T09:10:59.937Z,7.00
2019-04-05T09:13:29.106Z,6.90
2019-04-05T09:15:59.572Z,6.90
2019-04-05T09:18:28.796Z,6.90
2019-04-05T09:20:57.991Z,6.80
2019-04-05T09:23:27.209Z,6.70
2019-04-05T09:25:57.000Z,6.80
2019-04-05T09:28:27.412Z,7.00
2019-04-05T09:30:56.579Z,7.10
2019-04-05T09:33:28.739Z,7.10
2019-04-05T09:35:58.502Z,7.10
2019-04-05T09:38:27.658Z,7.00
2019-04-05T09:40:57.010Z,6.80
2019-04-05T09:43:26.242Z,6.80
2019-04-05T09:45:58.516Z,6.70
2019-04-05T09:48:29.565Z,6.60
2019-04-05T09:50:58.825Z,6.60
2019-04-05T09:53:27.974Z,6.60
2019-04-05T09:55:57.123Z,6.70
2019-04-05T09:58:26.896Z,6.80
2019-04-05T10:00:56.087Z,6.80
2019-04-05T10:03:28.014Z,6.80
2019-04-05T10:05:57.198Z,6.80
2019-04-05T10:08:26.372Z,6.80
2019-04-05T10:10:56.489Z,7.00
2019-04-05T10:13:25.685Z,7.20
2019-04-05T10:15:56.159Z,7.10
2019-04-05T10:18:25.562Z,7.40
2019-04-05T10:20:55.366Z,7.50
2019-04-05T10:23:24.674Z,7.60
2019-04-05T10:25:53.874Z,7.70
2019-04-05T10:28:23.349Z,7.80
2019-04-05T10:30:52.572Z,8.00
2019-04-05T10:33:21.774Z,7.90
2019-04-05T10:35:51.032Z,7.80
2019-04-05T10:38:20.447Z,7.80
2019-04-05T10:40:49.658Z,7.70
2019-04-05T10:43:21.192Z,7.60
2019-04-05T10:45:50.390Z,7.70
2019-04-05T10:48:19.606Z,7.90
2019-04-05T10:50:48.748Z,8.00
2019-04-05T10:53:17.906Z,8.20
2019-04-05T10:55:47.162Z,8.20
2019-04-05T10:58:16.400Z,8.30
2019-04-05T11:00:45.635Z,8.50
2019-04-05T11:03:14.804Z,8.70
2019-04-05T11:05:44.254Z,8.80
2019-04-05T11:08:13.432Z,8.90
2019-04-05T11:10:44.252Z,8.90
2019-04-05T11:13:14.939Z,9.00
2019-04-05T11:15:44.768Z,8.80
2019-04-05T11:18:13.979Z,9.10
2019-04-05T11:20:43.936Z,9.20
2019-04-05T11:23:13.143Z,9.10
2019-04-05T11:25:42.828Z,9.10
2019-04-05T11:28:11.959Z,9.10
2019-04-05T11:30:48.116Z,9.10
2019-04-05T11:33:20.916Z,9.00
2019-04-05T11:35:50.468Z,8.90
2019-04-05T11:38:23.987Z,9.10
2019-04-05T11:40:52.592Z,9.20
2019-04-05T11:43:26.228Z,9.20
2019-04-05T11:45:55.637Z,9.50
2019-04-05T11:48:25.222Z,9.70
2019-04-05T11:50:56.763Z,9.70
2019-04-05T11:53:26.191Z,9.80
2019-04-05T11:55:59.067Z,9.80
2019-04-05T11:58:28.286Z,9.90
2019-04-05T12:01:15.443Z,9.80
2019-04-05T12:03:45.361Z,9.70
2019-04-05T12:06:14.858Z,9.90
2019-04-05T12:08:44.060Z,9.70
2019-04-05T12:11:13.295Z,9.80
2019-04-05T12:13:42.494Z,9.90
2019-04-05T12:16:11.760Z,10.00
2019-04-05T12:18:40.988Z,10.00
2019-04-05T12:21:10.255Z,10.10
2019-04-05T12:23:42.462Z,9.80
2019-04-05T12:26:11.645Z,9.70
2019-04-05T12:28:40.900Z,9.70
2019-04-05T12:31:10.331Z,9.90
2019-04-05T12:33:42.479Z,10.20
2019-04-05T12:36:11.650Z,10.50
2019-04-05T12:38:45.226Z,10.60
2019-04-05T12:41:18.109Z,10.90
2019-04-05T12:43:47.140Z,10.90
2019-04-05T12:46:16.361Z,11.00
2019-04-05T12:48:52.690Z,10.90
2019-04-05T12:51:23.662Z,11.10
2019-04-05T12:53:56.488Z,11.00
2019-04-05T12:56:24.366Z,11.00
2019-04-05T12:58:57.198Z,11.10
2019-04-05T13:01:29.396Z,11.20
2019-04-05T13:03:59.085Z,10.90
2019-04-05T13:06:28.299Z,10.70
2019-04-05T13:08:57.482Z,10.60
2019-04-05T13:11:27.127Z,10.70
2019-04-05T13:13:57.006Z,10.70
2019-04-05T13:16:26.484Z,10.70
2019-04-05T13:18:55.932Z,10.50
2019-04-05T13:21:27.536Z,10.30
2019-04-05T13:23:56.221Z,10.30
2019-04-05T13:26:26.503Z,10.40
2019-04-05T13:28:56.084Z,10.30
2019-04-05T13:31:25.380Z,10.30
2019-04-05T13:33:55.512Z,10.30
2019-04-05T13:36:25.217Z,10.30
2019-04-05T13:38:55.279Z,10.40
2019-04-05T13:41:25.665Z,10.40
2019-04-05T13:43:54.823Z,10.70
2019-04-05T13:46:26.221Z,10.60
2019-04-05T13:48:56.142Z,10.70
2019-04-05T13:51:28.238Z,10.80
2019-04-05T13:53:58.157Z,10.80
2019-04-05T13:56:29.431Z,10.70
2019-04-05T13:58:59.680Z,10.50
2019-04-05T14:01:28.909Z,10.30
2019-04-05T14:03:58.104Z,10.10
2019-04-05T14:06:27.780Z,10.10
2019-04-05T14:08:57.367Z,10.20
2019-04-05T14:11:26.551Z,10.10
2019-04-05T14:13:55.732Z,10.20
2019-04-05T14:16:27.279Z,10.30
2019-04-05T14:18:56.525Z,10.60
2019-04-05T14:21:41.199Z,10.70
2019-04-05T14:24:06.001Z,10.80
2019-04-05T14:26:35.304Z,11.10
2019-04-05T14:29:05.769Z,11.20
2019-04-05T14:31:35.215Z,11.10
2019-04-05T14:34:04.504Z,11.20
2019-04-05T14:36:33.661Z,11.10
2019-04-05T14:39:03.206Z,10.80
2019-04-05T14:41:32.379Z,10.60
2019-04-05T14:44:01.604Z,10.50
2019-04-05T14:46:31.864Z,10.50
2019-04-05T14:49:01.243Z,10.30
2019-04-05T14:51:31.145Z,10.30
2019-04-05T14:54:01.684Z,10.60
2019-04-05T14:56:31.184Z,10.40
2019-04-05T14:59:01.866Z,10.20
2019-04-05T15:01:31.748Z,10.10
2019-04-05T15:04:04.105Z,9.90
2019-04-05T15:06:33.380Z,9.80
2019-04-05T15:09:08.153Z,9.90
2019-04-05T15:11:39.983Z,9.90
2019-04-05T15:14:09.480Z,9.90
2019-04-05T15:16:38.638Z,9.90
2019-04-05T15:19:07.892Z,10.00
2019-04-05T15:21:38.857Z,10.10
2019-04-05T15:24:08.934Z,10.20
2019-04-05T15:26:38.783Z,10.30
2019-04-05T15:29:07.928Z,10.30
2019-04-05T15:31:40.669Z,10.30
2019-04-05T15:34:09.898Z,10.30
2019-04-05T15:36:39.026Z,10.30
2019-04-05T15:39:10.257Z,10.50
2019-04-05T15:41:39.835Z,10.50
2019-04-05T15:44:10.732Z,10.50
2019-04-05T15:46:39.937Z,10.30
2019-04-05T15:49:09.224Z,10.10
2019-04-05T15:51:39.323Z,10.10
2019-04-05T15:54:10.853Z,9.90
2019-04-05T15:56:40.437Z,9.80
2019-04-05T15:59:09.714Z,9.70
2019-04-05T16:01:38.926Z,9.70
2019-04-05T16:04:08.537Z,9.80
2019-04-05T16:06:39.737Z,9.80
2019-04-05T16:09:15.612Z,9.90
2019-04-05T16:11:45.161Z,10.00
2019-04-05T16:14:14.434Z,9.80
2019-04-05T16:16:46.407Z,9.70
2019-04-05T16:19:15.595Z,9.70
2019-04-05T16:21:45.245Z,9.70
2019-04-05T16:24:14.426Z,9.70
2019-04-05T16:26:43.704Z,9.70
2019-04-05T16:29:12.899Z,9.60
2019-04-05T16:31:42.190Z,9.50
2019-04-05T16:34:11.730Z,9.40
2019-04-05T16:36:41.006Z,9.30
2019-04-05T16:39:15.032Z,9.30
2019-04-05T16:41:44.607Z,9.80
2019-04-05T16:44:13.814Z,9.70
2019-04-05T16:46:44.276Z,9.60
2019-04-05T16:49:13.513Z,9.40
2019-04-05T16:51:42.714Z,9.40
2019-04-05T16:54:11.844Z,9.30
2019-04-05T16:56:41.154Z,9.20
2019-04-05T16:59:10.334Z,9.20
2019-04-05T17:01:39.629Z,9.10
2019-04-05T17:04:08.879Z,9.10
2019-04-05T17:06:38.607Z,9.00
2019-04-05T17:09:10.224Z,9.00
2019-04-05T17:11:39.380Z,8.90
2019-04-05T17:14:08.600Z,8.80
2019-04-05T17:16:37.773Z,8.80
2019-04-05T17:19:11.428Z,8.80
2019-04-05T17:21:40.660Z,8.80
2019-04-05T17:24:09.831Z,8.70
2019-04-05T17:26:40.350Z,8.60
2019-04-05T17:29:09.822Z,8.60
2019-04-05T17:31:41.521Z,8.50
2019-04-05T17:34:10.687Z,8.40
2019-04-05T17:36:39.951Z,8.40
2019-04-05T17:39:09.480Z,8.30
2019-04-05T17:41:42.622Z,8.20
2019-04-05T17:44:11.898Z,8.20
2019-04-05T17:46:41.192Z,8.10
2019-04-05T17:49:10.483Z,8.00
2019-04-05T17:51:39.729Z,8.00
2019-04-05T17:54:09.079Z,7.90
2019-04-05T17:56:38.476Z,7.90
2019-04-05T17:59:07.644Z,7.80
2019-04-05T18:01:38.717Z,7.70
2019-04-05T18:04:07.911Z,7.60
2019-04-05T18:06:38.410Z,7.60
2019-04-05T18:09:08.291Z,7.50
2019-04-05T18:11:37.492Z,7.40
2019-04-05T18:14:07.906Z,7.30
2019-04-05T18:16:37.857Z,7.20
2019-04-05T18:19:07.157Z,7.20
2019-04-05T18:21:36.360Z,7.10
2019-04-05T18:24:06.308Z,7.00
2019-04-05T18:26:36.930Z,7.00
2019-04-05T18:29:08.440Z,6.90
2019-04-05T18:31:37.896Z,6.80
2019-04-05T18:34:07.470Z,6.80
2019-04-05T18:36:37.719Z,6.70
2019-04-05T18:39:08.867Z,6.70
2019-04-05T18:41:38.141Z,6.70
2019-04-05T18:44:08.137Z,6.60
2019-04-05T18:46:37.556Z,6.50
2019-04-05T18:49:06.908Z,6.50
2019-04-05T18:51:37.567Z,6.40
2019-04-05T18:54:09.132Z,6.40
2019-04-05T18:56:39.957Z,6.30
2019-04-05T18:59:09.329Z,6.30
2019-04-05T19:01:38.604Z,6.20
2019-04-05T19:04:07.852Z,6.10
2019-04-05T19:06:37.228Z,6.10
2019-04-05T19:09:08.059Z,6.00
2019-04-05T19:11:37.408Z,6.00
2019-04-05T19:14:06.877Z,6.00
2019-04-05T19:16:36.539Z,5.90
2019-04-05T19:19:05.822Z,5.90
2019-04-05T19:21:35.127Z,5.80
2019-04-05T19:24:04.639Z,5.70
2019-04-05T19:26:33.892Z,5.70
2019-04-05T19:29:03.494Z,5.70
2019-04-05T19:49:12.264Z,5.40
2019-04-05T19:51:41.520Z,5.40
2019-04-05T19:54:11.117Z,5.40
2019-04-05T19:56:40.307Z,5.40
2019-04-05T19:59:11.160Z,5.40
2019-04-05T20:01:40.399Z,5.40
2019-04-05T20:04:09.617Z,5.40
2019-04-05T20:06:40.535Z,5.40
2019-04-05T20:09:11.563Z,5.40
2019-04-05T20:11:43.771Z,5.30
2019-04-05T20:14:13.029Z,5.30
2019-04-05T20:16:42.328Z,5.30
2019-04-05T20:19:11.544Z,5.40
2019-04-05T20:21:40.772Z,5.40
2019-04-05T20:24:14.337Z,5.40
2019-04-05T20:26:42.498Z,5.40
2019-04-05T20:29:14.720Z,5.40
2019-04-05T20:31:43.937Z,5.40
2019-04-05T20:34:13.226Z,5.50
2019-04-05T20:36:46.218Z,5.60
2019-04-05T20:39:16.611Z,5.60
2019-04-05T20:41:45.772Z,5.70
2019-04-05T20:44:15.031Z,5.80
2019-04-05T20:46:45.440Z,5.80
2019-04-05T20:49:14.863Z,5.80
2019-04-05T20:51:44.289Z,5.90
2019-04-05T20:54:20.071Z,5.80
2019-04-05T20:56:44.415Z,5.90
2019-04-05T20:59:13.646Z,5.80
2019-04-05T21:01:45.902Z,5.80
2019-04-05T21:04:15.179Z,5.80
2019-04-05T21:06:46.702Z,5.80
2019-04-05T21:09:16.076Z,5.90
2019-04-05T21:11:46.717Z,5.90
2019-04-05T21:14:16.106Z,5.90
2019-04-05T21:16:45.571Z,5.90
2019-04-05T21:19:14.757Z,6.00
2019-04-05T21:21:43.935Z,6.00
2019-04-05T21:24:13.277Z,6.00
2019-04-05T21:26:42.500Z,6.00
2019-04-05T21:29:11.690Z,6.00
2019-04-05T21:31:41.100Z,6.10
2019-04-05T21:34:12.400Z,6.10
2019-04-05T21:36:41.704Z,6.10
2019-04-05T21:39:13.239Z,6.10
2019-04-05T21:41:43.958Z,6.00
2019-04-05T21:44:13.328Z,6.00
2019-04-05T21:46:42.962Z,6.00
2019-04-05T21:49:12.165Z,6.00
2019-04-05T21:51:42.131Z,6.00
2019-04-05T21:54:11.359Z,6.00
2019-04-05T21:56:40.559Z,6.00
2019-04-05T21:59:09.847Z,6.00
